Time;durP1;ratioP1;P1;durP2;ratioP2;P2;SDS_P1;SDS_P2;PMS_P1;PMS_P2;Temp;Humidity;BMP_temperature;BMP_pressure;BME280_temperature;BME280_humidity;BME280_pressure;Samples;Min_cycle;Max_cycle;Signal;HPM_P1;HPM_P2
2021/04/18 00:04:25;;;;;;;28.00;15.13;;;;;;;4.00;100.00;94405.59;10487276;28;20029;-75
2021/04/18 00:09:26;;;;;;;31.10;16.17;;;;;;;4.03;100.00;94386.53;10487413;28;20016;-75
2021/04/18 00:14:26;;;;;;;32.53;17.75;;;;;;;4.06;100.00;94398.50;10487311;28;20025;-76
2021/04/18 00:19:27;;;;;;;34.67;19.67;;;;;;;4.16;100.00;94388.06;10488937;28;20039;-77
2021/04/18 00:24:27;;;;;;;34.07;18.63;;;;;;;4.23;100.00;94378.06;10487902;28;20317;-76
2021/04/18 00:29:27;;;;;;;41.35;22.73;;;;;;;4.12;100.00;94370.97;10469752;28;20024;-75
2021/04/18 00:34:28;;;;;;;40.80;21.30;;;;;;;4.11;100.00;94377.31;10487868;28;20434;-76
2021/04/18 00:39:28;;;;;;;32.23;19.43;;;;;;;4.07;100.00;94389.50;10527680;28;20513;-75
2021/04/18 00:44:29;;;;;;;38.63;20.33;;;;;;;4.08;100.00;94372.50;10511291;28;20490;-75
2021/04/18 00:49:29;;;;;;;45.35;21.27;;;;;;;4.06;100.00;94379.88;10528908;28;20012;-76
2021/04/18 00:54:29;;;;;;;43.20;23.33;;;;;;;4.08;100.00;94360.00;10510920;28;20859;-76
2021/04/18 00:59:30;;;;;;;38.50;20.67;;;;;;;4.17;100.00;94363.06;10510335;28;20535;-76
2021/04/18 01:04:31;;;;;;;37.47;20.70;;;;;;;4.19;100.00;94368.94;10528286;28;20479;-76
2021/04/18 01:09:32;;;;;;;38.63;21.40;;;;;;;4.23;100.00;94370.06;10528616;28;20027;-76
2021/04/18 01:14:32;;;;;;;35.88;20.63;;;;;;;4.33;100.00;94360.66;10528359;28;20034;-77
2021/04/18 01:19:33;;;;;;;38.67;20.87;;;;;;;4.36;100.00;94363.63;10509292;28;20028;-75
2021/04/18 01:24:34;;;;;;;40.65;22.98;;;;;;;4.23;100.00;94364.75;10528554;28;20361;-76
2021/04/18 01:29:34;;;;;;;37.95;21.17;;;;;;;4.28;100.00;94356.88;10527856;28;20039;-76
2021/04/18 01:34:42;;;;;;;44.17;23.20;;;;;;;4.30;100.00;94356.63;10509195;28;20094;-76
2021/04/18 01:39:43;;;;;;;41.33;22.42;;;;;;;4.37;100.00;94354.59;10527360;28;20765;-76
2021/04/18 01:44:44;;;;;;;41.00;21.30;;;;;;;4.22;100.00;94341.84;10527447;28;20119;-76
2021/04/18 01:49:44;;;;;;;45.17;21.90;;;;;;;4.22;100.00;94347.19;10527245;28;20113;-76
2021/04/18 01:54:44;;;;;;;43.93;21.77;;;;;;;4.34;100.00;94346.28;10526889;28;20543;-76
2021/04/18 01:59:45;;;;;;;41.77;21.90;;;;;;;4.24;100.00;94345.09;10527239;28;21049;-76
2021/04/18 02:04:45;;;;;;;41.10;20.20;;;;;;;4.21;100.00;94356.19;10507929;28;20274;-76
2021/04/18 02:09:45;;;;;;;54.27;22.47;;;;;;;4.16;100.00;94350.00;10526312;28;20031;-76
2021/04/18 02:14:46;;;;;;;49.93;22.97;;;;;;;4.19;100.00;94362.84;10508066;28;20285;-75
2021/04/18 02:19:46;;;;;;;45.77;22.53;;;;;;;4.15;100.00;94359.03;10525511;28;20294;-75
2021/04/18 02:24:47;;;;;;;46.78;23.08;;;;;;;4.17;100.00;94354.28;10525813;28;20278;-76
2021/04/18 02:29:47;;;;;;;42.75;23.20;;;;;;;4.21;100.00;94350.88;10507244;28;20022;-76
2021/04/18 02:34:49;;;;;;;41.05;23.38;;;;;;;4.30;100.00;94351.31;10508038;28;20127;-76
2021/04/18 02:39:49;;;;;;;44.92;22.30;;;;;;;4.23;100.00;94340.81;10525126;28;20035;-77
2021/04/18 02:44:50;;;;;;;47.28;23.45;;;;;;;4.11;100.00;94334.78;10525135;28;20411;-76
2021/04/18 02:49:50;;;;;;;47.55;25.02;;;;;;;4.16;100.00;94352.66;10509756;28;20070;-76
2021/04/18 02:54:51;;;;;;;57.63;25.98;;;;;;;4.10;100.00;94333.16;10533397;28;20052;-77
2021/04/18 02:59:52;;;;;;;44.60;21.98;;;;;;;4.18;100.00;94340.72;10515263;28;20081;-77
2021/04/18 03:04:53;;;;;;;51.22;24.77;;;;;;;4.26;100.00;94355.50;10533723;28;20038;-77
2021/04/18 03:09:53;;;;;;;50.70;25.95;;;;;;;4.22;100.00;94349.03;10533338;28;20031;-76
2021/04/18 03:14:54;;;;;;;48.13;23.77;;;;;;;4.31;100.00;94350.22;10532701;28;20016;-76
2021/04/18 03:19:54;;;;;;;44.40;24.30;;;;;;;4.27;100.00;94362.44;10532528;28;20890;-76
2021/04/18 03:24:54;;;;;;;45.67;20.97;;;;;;;4.29;100.00;94347.03;10532261;28;20298;-76
2021/04/18 03:29:55;;;;;;;52.77;25.00;;;;;;;4.42;100.00;94360.00;10513749;28;20483;-76
2021/04/18 03:34:55;;;;;;;41.53;19.70;;;;;;;4.37;100.00;94375.09;10530857;28;20274;-77
2021/04/18 03:39:55;;;;;;;50.43;22.97;;;;;;;4.20;100.00;94375.88;10530155;28;20059;-76
2021/04/18 03:44:56;;;;;;;42.60;21.80;;;;;;;4.11;100.00;94372.00;10512604;28;20272;-77
2021/04/18 03:49:56;;;;;;;37.63;21.73;;;;;;;4.17;100.00;94371.06;10531091;28;20273;-76
2021/04/18 03:54:57;;;;;;;43.83;20.83;;;;;;;4.17;100.00;94370.22;10531007;28;20051;-76
2021/04/18 03:59:57;;;;;;;35.95;19.42;;;;;;;4.11;100.00;94367.47;10530472;28;20032;-76
2021/04/18 04:04:57;;;;;;;43.63;22.10;;;;;;;3.96;100.00;94374.41;10512065;28;20393;-76
2021/04/18 04:09:58;;;;;;;44.80;22.87;;;;;;;3.82;100.00;94388.00;10530399;28;20304;-76
2021/04/18 04:14:58;;;;;;;51.20;24.03;;;;;;;3.80;100.00;94389.31;10511537;28;20302;-76
2021/04/18 04:19:59;;;;;;;45.65;22.60;;;;;;;3.81;100.00;94397.03;10529350;28;20289;-76
2021/04/18 04:24:59;;;;;;;55.60;25.30;;;;;;;3.82;100.00;94405.81;10529991;28;20024;-77
2021/04/18 04:29:59;;;;;;;60.60;26.55;;;;;;;3.93;100.00;94413.75;10529113;28;20123;-76
2021/04/18 04:35:00;;;;;;;54.00;23.57;;;;;;;3.90;100.00;94408.88;10528982;28;20039;-74
2021/04/18 04:40:00;;;;;;;58.22;25.92;;;;;;;3.83;100.00;94404.78;10528166;28;20020;-72
2021/04/18 04:45:01;;;;;;;44.25;21.08;;;;;;;3.87;100.00;94414.69;10527801;28;20471;-72
2021/04/18 04:50:02;;;;;;;49.30;22.33;;;;;;;3.93;100.00;94424.38;10528048;28;20053;-72
2021/04/18 04:55:03;;;;;;;49.25;21.95;;;;;;;3.89;100.00;94428.56;10526069;28;20056;-72
2021/04/18 05:00:05;;;;;;;41.35;19.08;;;;;;;3.82;100.00;94421.75;10507549;28;20028;-72
2021/04/18 05:05:06;;;;;;;30.38;17.63;;;;;;;3.84;100.00;94435.63;10526925;28;20734;-72
2021/04/18 05:10:07;;;;;;;40.30;19.75;;;;;;;3.79;100.00;94433.66;10526970;28;20016;-72
2021/04/18 05:15:08;;;;;;;36.40;18.60;;;;;;;3.77;100.00;94414.50;10507218;28;20024;-72
2021/04/18 05:20:09;;;;;;;40.38;18.75;;;;;;;3.78;100.00;94397.50;10484908;28;20028;-72
2021/04/18 05:25:12;;;;;;;31.08;18.17;;;;;;;3.72;100.00;94396.59;10482501;28;20035;-72
2021/04/18 05:30:13;;;;;;;35.63;20.63;;;;;;;3.87;100.00;94398.72;10501984;28;20044;-72
2021/04/18 05:35:13;;;;;;;28.60;15.25;;;;;;;3.91;100.00;94391.88;10505015;28;20141;-72
2021/04/18 05:40:14;;;;;;;34.45;17.98;;;;;;;3.92;100.00;94374.91;10492985;28;20104;-72
2021/04/18 05:45:14;;;;;;;31.17;15.88;;;;;;;4.01;100.00;94377.97;10483941;28;20024;-72
2021/04/18 05:50:14;;;;;;;36.37;17.97;;;;;;;4.11;100.00;94380.78;10484221;28;20805;-72
2021/04/18 05:55:15;;;;;;;35.47;16.58;;;;;;;4.28;100.00;94396.75;10483100;28;20344;-72
2021/04/18 06:00:16;;;;;;;35.67;16.20;;;;;;;4.44;100.00;94399.66;10483781;28;20071;-72
2021/04/18 06:05:16;;;;;;;36.33;17.35;;;;;;;4.51;100.00;94392.31;10483426;28;20032;-72
2021/04/18 06:10:17;;;;;;;28.13;16.52;;;;;;;4.50;100.00;94397.88;10482735;28;20073;-73
2021/04/18 06:15:18;;;;;;;26.80;15.60;;;;;;;4.39;100.00;94396.91;10482907;28;20024;-72
2021/04/18 06:20:18;;;;;;;28.55;15.85;;;;;;;4.35;100.00;94387.81;10482647;28;20091;-73
2021/04/18 06:25:19;;;;;;;29.58;15.70;;;;;;;4.51;100.00;94387.00;10487956;28;20040;-73
2021/04/18 06:30:20;;;;;;;26.30;15.20;;;;;;;4.51;100.00;94389.66;10504940;28;20051;-73
2021/04/18 06:35:20;;;;;;;34.47;17.42;;;;;;;4.75;100.00;94392.91;10519658;28;20402;-73
2021/04/18 06:40:21;;;;;;;29.60;15.57;;;;;;;5.07;100.00;94389.63;10513973;28;20039;-74
2021/04/18 06:45:22;;;;;;;23.75;13.43;;;;;;;5.34;100.00;94396.88;10500103;28;20275;-73
2021/04/18 06:50:22;;;;;;;26.85;14.50;;;;;;;5.29;100.00;94381.63;10481408;28;20460;-73
2021/04/18 06:55:25;;;;;;;30.67;16.58;;;;;;;5.46;100.00;94388.75;10497590;28;20052;-74
2021/04/18 07:00:26;;;;;;;33.63;16.23;;;;;;;5.70;100.00;94399.16;10508115;28;20102;-74
2021/04/18 07:05:26;;;;;;;34.40;18.00;;;;;;;5.74;100.00;94402.91;10482246;28;20675;-74
2021/04/18 07:10:30;;;;;;;32.67;16.55;;;;;;;5.83;100.00;94398.72;10479638;28;20263;-74
2021/04/18 07:15:40;;;;;;;30.13;15.02;;;;;;;5.94;100.00;94396.97;10479889;28;20494;-73
2021/04/18 07:21:01;;;;;;;35.75;16.35;;;;;;;5.67;100.00;94397.00;10480179;28;20029;-73
2021/04/18 07:26:27;;;;;;;33.28;16.40;;;;;;;5.54;100.00;94396.31;10480199;28;20051;-73
2021/04/18 07:31:29;;;;;;;38.25;17.73;;;;;;;5.65;100.00;94406.03;10474984;28;20452;-73
2021/04/18 07:36:30;;;;;;;42.30;18.08;;;;;;;5.74;100.00;94403.72;10483754;28;20084;-73
2021/04/18 07:41:31;;;;;;;35.03;18.05;;;;;;;5.60;100.00;94405.16;10487452;28;20107;-73
2021/04/18 07:46:32;;;;;;;42.17;18.92;;;;;;;5.51;100.00;94412.00;10487484;28;20418;-73
2021/04/18 07:51:32;;;;;;;44.88;21.65;;;;;;;5.64;100.00;94423.06;10485859;28;20106;-73
2021/04/18 07:56:33;;;;;;;49.35;22.10;;;;;;;5.73;100.00;94422.63;10486679;28;20107;-74
2021/04/18 08:01:33;;;;;;;38.00;19.92;;;;;;;5.79;100.00;94416.28;10504952;28;20489;-74
2021/04/18 08:06:34;;;;;;;42.03;19.80;;;;;;;5.78;100.00;94420.81;10529201;28;20024;-74
2021/04/18 08:11:34;;;;;;;44.67;20.30;;;;;;;5.97;100.00;94418.66;10510011;28;20266;-74
2021/04/18 08:16:35;;;;;;;43.53;20.73;;;;;;;6.09;100.00;94420.38;10528470;28;20398;-74
2021/04/18 08:21:38;;;;;;;51.20;24.33;;;;;;;6.38;100.00;94422.72;10529523;28;20308;-74
2021/04/18 08:26:39;;;;;;;42.90;20.23;;;;;;;6.08;100.00;94427.53;10529523;28;20111;-74
2021/04/18 08:31:48;;;;;;;45.17;22.35;;;;;;;6.26;100.00;94429.03;10529784;28;20597;-74
2021/04/18 08:36:51;;;;;;;50.03;25.58;;;;;;;6.50;100.00;94410.03;10528645;28;20027;-74
2021/04/18 08:42:00;;;;;;;43.20;20.80;;;;;;;6.74;100.00;94420.34;10531038;28;20025;-74
2021/04/18 08:47:01;;;;;;;;;;;;;;;6.84;100.00;94425.78;10528541;28;20911;-74
2021/04/18 08:52:14;;;;;;;53.05;21.13;;;;;;;7.12;100.00;94421.94;10528935;28;19922;-75
2021/04/18 08:57:17;;;;;;;42.15;21.00;;;;;;;7.26;100.00;94430.28;10528623;28;20116;-74
2021/04/18 09:02:18;;;;;;;46.83;22.48;;;;;;;7.41;100.00;94424.22;10500972;28;20479;-75
2021/04/18 09:07:20;;;;;;;45.33;21.17;;;;;;;7.63;100.00;94439.28;10486535;28;20035;-75
2021/04/18 09:12:21;;;;;;;40.70;21.38;;;;;;;7.78;100.00;94431.28;10486589;28;20028;-75
2021/04/18 09:17:26;;;;;;;45.92;21.00;;;;;;;7.85;100.00;94431.06;10520160;28;20054;-75
2021/04/18 09:22:46;;;;;;;55.25;24.73;;;;;;;8.01;100.00;94432.72;10503439;28;20101;-74
2021/04/18 09:27:49;;;;;;;48.25;19.92;;;;;;;8.14;100.00;94438.63;10514668;28;20173;-74
2021/04/18 09:32:59;;;;;;;44.40;21.80;;;;;;;8.05;100.00;94432.97;10521514;28;20040;-73
2021/04/18 09:38:02;;;;;;;49.42;23.90;;;;;;;8.24;100.00;94435.97;10522761;28;20066;-74
2021/04/18 09:43:06;;;;;;;47.70;23.70;;;;;;;8.67;100.00;94428.53;10522248;28;21275;-74
2021/04/18 09:48:11;;;;;;;49.60;20.85;;;;;;;8.81;100.00;94442.19;10518705;28;20032;-74
2021/04/18 09:53:18;;;;;;;44.78;22.80;;;;;;;9.13;100.00;94429.56;10512118;28;20036;-74
2021/04/18 09:58:31;;;;;;;41.67;20.98;;;;;;;8.84;100.00;94428.22;10499889;28;20790;-74
2021/04/18 10:03:38;;;;;;;46.28;21.27;;;;;;;9.05;100.00;94434.38;10498567;28;20027;-74
2021/04/18 10:08:40;;;;;;;47.15;20.20;;;;;;;8.97;100.00;94426.09;10499887;28;20024;-74
2021/04/18 10:13:49;;;;;;;42.80;21.83;;;;;;;9.09;100.00;94437.31;10482774;28;20066;-74
2021/04/18 10:19:22;;;;;;;43.90;21.52;;;;;;;9.01;100.00;94432.50;10495119;28;20028;-74
2021/04/18 10:24:46;;;;;;;47.50;23.48;;;;;;;8.81;100.00;94433.34;10491435;28;20391;-74
2021/04/18 10:29:48;;;;;;;52.72;23.02;;;;;;;9.31;100.00;94434.34;10442187;28;20025;-74
2021/04/18 10:34:50;;;;;;;45.90;21.52;;;;;;;8.93;100.00;94420.47;10440740;28;20033;-74
2021/04/18 10:39:50;;;;;;;43.70;21.75;;;;;;;8.47;100.00;94434.69;10490280;28;20071;-74
2021/04/18 10:44:51;;;;;;;46.25;22.83;;;;;;;9.32;100.00;94433.25;10494364;28;20116;-73
2021/04/18 10:49:51;;;;;;;44.53;21.57;;;;;;;9.29;100.00;94444.50;10482476;28;20044;-74
2021/04/18 10:54:51;;;;;;;41.70;18.93;;;;;;;9.26;100.00;94437.00;10481957;28;20056;-74
2021/04/18 10:59:52;;;;;;;39.13;20.27;;;;;;;11.26;100.00;94431.50;10482459;28;20067;-75
2021/04/18 11:04:52;;;;;;;36.63;17.83;;;;;;;11.75;100.00;94441.22;10482258;28;20044;-76
2021/04/18 11:09:53;;;;;;;38.83;19.50;;;;;;;10.62;100.00;94450.38;10482333;28;20896;-77
2021/04/18 11:14:53;;;;;;;36.58;19.75;;;;;;;10.22;100.00;94442.25;10461627;28;20053;-75
2021/04/18 11:19:53;;;;;;;46.47;21.03;;;;;;;9.66;100.00;94443.34;10448307;28;20115;-75
2021/04/18 11:24:54;;;;;;;54.03;23.93;;;;;;;9.43;100.00;94452.78;10470430;28;20033;-76
2021/04/18 11:29:54;;;;;;;52.13;24.90;;;;;;;9.58;100.00;94433.97;10490448;28;20032;-76
2021/04/18 11:34:55;;;;;;;46.72;24.38;;;;;;;9.51;100.00;94454.13;10487610;28;20271;-75
2021/04/18 11:39:56;;;;;;;50.80;25.92;;;;;;;9.30;100.00;94459.53;10487506;28;20016;-75
2021/04/18 11:44:57;;;;;;;65.90;33.05;;;;;;;9.18;100.00;94459.00;10469640;28;20036;-76
2021/04/18 11:49:57;;;;;;;64.88;28.90;;;;;;;9.13;100.00;94445.66;10486878;28;20028;-75
2021/04/18 11:54:57;;;;;;;75.77;34.07;;;;;;;9.43;100.00;94458.16;10517858;28;20048;-76
2021/04/18 11:59:58;;;;;;;71.90;32.30;;;;;;;8.92;100.00;94459.06;10524058;28;20297;-75
2021/04/18 12:04:58;;;;;;;68.50;31.53;;;;;;;8.48;100.00;94456.91;10527740;28;20039;-76
2021/04/18 12:09:59;;;;;;;68.22;31.10;;;;;;;8.38;100.00;94463.81;10524810;28;20032;-76
2021/04/18 12:14:59;;;;;;;59.57;28.80;;;;;;;8.33;100.00;94461.16;10527638;28;20027;-75
2021/04/18 12:19:59;;;;;;;64.70;31.03;;;;;;;8.36;100.00;94465.19;10528604;28;20379;-76
2021/04/18 12:25:00;;;;;;;66.30;31.47;;;;;;;8.09;100.00;94458.13;10524334;28;20420;-76
2021/04/18 12:30:00;;;;;;;57.80;29.55;;;;;;;8.35;100.00;94469.72;10486474;28;20025;-76
2021/04/18 12:35:01;;;;;;;62.42;29.77;;;;;;;8.08;100.00;94469.94;10486863;28;20475;-76
2021/04/18 12:40:02;;;;;;;66.93;27.88;;;;;;;7.93;100.00;94477.91;10507747;28;20032;-75
2021/04/18 12:45:07;;;;;;;67.63;28.40;;;;;;;7.88;100.00;94476.00;10526199;28;20036;-75
2021/04/18 12:50:08;;;;;;;70.90;30.95;;;;;;;8.02;100.00;94474.47;10528017;28;20024;-76
2021/04/18 12:55:09;;;;;;;62.47;29.25;;;;;;;8.05;100.00;94475.78;10504914;28;20067;-76
2021/04/18 13:00:14;;;;;;;77.82;31.98;;;;;;;8.32;100.00;94474.81;10466867;28;20025;-75
2021/04/18 13:05:14;;;;;;;69.90;31.45;;;;;;;8.50;100.00;94492.28;10533091;28;20051;-75
2021/04/18 13:10:14;;;;;;;58.03;27.90;;;;;;;8.21;100.00;94487.34;10505409;28;20031;-75
2021/04/18 13:15:18;;;;;;;62.83;28.37;;;;;;;7.78;100.00;94498.19;10508805;28;20031;-75
2021/04/18 13:20:19;;;;;;;69.00;29.83;;;;;;;7.61;100.00;94500.25;10525911;28;20286;-75
2021/04/18 13:25:20;;;;;;;62.30;28.52;;;;;;;7.51;100.00;94504.47;10522446;28;20036;-75
2021/04/18 13:30:21;;;;;;;83.60;30.33;;;;;;;7.27;100.00;94497.91;10515430;28;20052;-75
2021/04/18 13:35:22;;;;;;;66.85;26.83;;;;;;;7.29;100.00;94496.59;10499381;28;20043;-75
2021/04/18 13:40:24;;;;;;;67.78;30.80;;;;;;;7.45;100.00;94518.88;10489683;28;20392;-75
2021/04/18 13:45:25;;;;;;;66.43;26.85;;;;;;;7.27;100.00;94530.81;10484827;28;20040;-75
2021/04/18 13:50:25;;;;;;;73.55;30.90;;;;;;;6.91;100.00;94535.88;10482715;28;20024;-75
2021/04/18 13:55:26;;;;;;;73.13;29.77;;;;;;;6.99;100.00;94553.28;10482615;28;20135;-75
2021/04/18 14:00:26;;;;;;;74.63;29.75;;;;;;;7.03;100.00;94562.41;10483404;28;20032;-75
2021/04/18 14:05:28;;;;;;;81.57;29.52;;;;;;;6.81;100.00;94557.19;10483452;28;20024;-75
2021/04/18 14:10:29;;;;;;;78.65;29.52;;;;;;;6.81;100.00;94559.84;10483104;28;20458;-74
2021/04/18 14:15:30;;;;;;;71.50;28.77;;;;;;;6.75;100.00;94574.19;10463975;28;20039;-76
2021/04/18 14:20:30;;;;;;;70.20;30.58;;;;;;;6.74;100.00;94586.75;10506236;28;20036;-75
2021/04/18 14:25:30;;;;;;;79.43;31.85;;;;;;;6.54;100.00;94587.34;10509921;28;20130;-74
2021/04/18 14:30:31;;;;;;;66.33;28.97;;;;;;;6.62;100.00;94584.22;10524153;28;20031;-74
2021/04/18 14:35:32;;;;;;;83.30;31.65;;;;;;;6.65;100.00;94609.63;10523369;28;20361;-75
2021/04/18 14:40:32;;;;;;;85.13;33.20;;;;;;;6.78;100.00;94608.41;10523938;28;20032;-75
2021/04/18 14:45:33;;;;;;;66.70;30.05;;;;;;;6.93;100.00;94608.56;10525739;28;20030;-75
2021/04/18 14:50:34;;;;;;;81.32;31.90;;;;;;;6.97;100.00;94611.53;10532101;28;20036;-75
2021/04/18 14:55:34;;;;;;;78.05;29.13;;;;;;;7.15;100.00;94615.72;10532499;28;20060;-75
2021/04/18 15:00:35;;;;;;;72.13;29.95;;;;;;;7.10;100.00;94621.81;10512376;28;20491;-75
2021/04/18 15:05:35;;;;;;;66.97;26.10;;;;;;;7.26;100.00;94617.41;10489857;28;20086;-75
2021/04/18 15:10:36;;;;;;;71.03;29.45;;;;;;;7.22;100.00;94613.63;10490139;28;20488;-75
2021/04/18 15:15:36;;;;;;;77.28;30.23;;;;;;;7.26;100.00;94627.28;10489384;28;20029;-75
2021/04/18 15:20:37;;;;;;;74.03;31.57;;;;;;;7.28;100.00;94631.31;10471458;28;20696;-75
2021/04/18 15:25:37;;;;;;;67.53;29.17;;;;;;;7.15;100.00;94629.88;10533516;28;20270;-75
2021/04/18 15:30:38;;;;;;;73.38;30.02;;;;;;;7.33;100.00;94631.34;10530712;28;20266;-75
2021/04/18 15:35:38;;;;;;;78.90;30.85;;;;;;;7.39;100.00;94629.53;10530522;28;20028;-75
2021/04/18 15:40:43;;;;;;;75.50;30.27;;;;;;;7.45;100.00;94638.38;10530591;28;20036;-74
2021/04/18 15:45:43;;;;;;;77.70;32.20;;;;;;;7.56;100.00;94642.75;10530024;28;20491;-74
2021/04/18 15:50:44;;;;;;;69.03;30.13;;;;;;;7.62;100.00;94644.41;10529263;28;20028;-74
2021/04/18 15:55:44;;;;;;;84.82;31.73;;;;;;;7.63;100.00;94648.72;10528954;28;20040;-74
2021/04/18 16:00:45;;;;;;;64.90;27.48;;;;;;;7.59;100.00;94650.28;10529420;28;20024;-75
2021/04/18 16:05:45;;;;;;;76.05;30.58;;;;;;;7.57;100.00;94648.94;10528246;28;20491;-75
2021/04/18 16:10:45;;;;;;;61.17;26.13;;;;;;;7.70;100.00;94661.84;10529226;28;20059;-74
2021/04/18 16:15:46;;;;;;;65.40;27.00;;;;;;;7.69;100.00;94661.06;10528804;28;20094;-74
2021/04/18 16:20:49;;;;;;;61.37;25.10;;;;;;;7.61;100.00;94664.19;10528421;28;20035;-74
2021/04/18 16:25:51;;;;;;;71.25;26.98;;;;;;;7.59;100.00;94660.97;10528154;28;20770;-74
2021/04/18 16:30:51;;;;;;;61.08;25.38;;;;;;;7.56;100.00;94672.16;10528499;28;20479;-74
2021/04/18 16:35:51;;;;;;;60.93;25.33;;;;;;;7.61;100.00;94674.09;10528020;28;20035;-74
2021/04/18 16:40:52;;;;;;;52.87;24.00;;;;;;;7.64;100.00;94677.06;10528659;28;20028;-74
2021/04/18 16:45:54;;;;;;;59.63;25.65;;;;;;;7.62;100.00;94689.06;10499621;28;20287;-74
2021/04/18 16:50:55;;;;;;;50.50;23.80;;;;;;;7.65;100.00;94700.06;10485547;28;20032;-75
2021/04/18 16:55:56;;;;;;;55.53;23.92;;;;;;;7.61;100.00;94690.94;10444787;28;20535;-74
2021/04/18 17:00:57;;;;;;;54.75;24.55;;;;;;;7.62;100.00;94703.25;10443774;28;20448;-74
2021/04/18 17:05:57;;;;;;;54.33;23.13;;;;;;;7.58;100.00;94696.81;10443446;28;20024;-74
2021/04/18 17:10:58;;;;;;;50.23;23.60;;;;;;;7.62;100.00;94697.91;10476139;28;20263;-74
2021/04/18 17:15:59;;;;;;;43.78;21.67;;;;;;;7.65;100.00;94700.06;10485607;28;20098;-74
2021/04/18 17:21:00;;;;;;;47.78;20.70;;;;;;;7.61;100.00;94698.16;10466716;28;20475;-74
2021/04/18 17:26:01;;;;;;;45.95;20.35;;;;;;;7.62;100.00;94705.94;10484094;28;20027;-74
2021/04/18 17:31:02;;;;;;;43.88;21.25;;;;;;;7.60;100.00;94705.38;10454014;28;20113;-74
2021/04/18 17:36:02;;;;;;;49.72;22.63;;;;;;;7.60;100.00;94707.25;10443023;28;20025;-75
2021/04/18 17:41:03;;;;;;;49.20;22.15;;;;;;;7.61;100.00;94717.69;10456918;28;20487;-75
2021/04/18 17:46:04;;;;;;;58.38;24.40;;;;;;;7.45;100.00;94715.94;10479266;28;20017;-74
2021/04/18 17:51:05;;;;;;;45.58;21.77;;;;;;;7.20;100.00;94725.34;10443821;28;20021;-75
2021/04/18 17:56:06;;;;;;;50.75;22.50;;;;;;;7.17;100.00;94725.81;10483763;28;20043;-75
2021/04/18 18:01:06;;;;;;;51.28;22.27;;;;;;;7.12;100.00;94744.50;10465425;28;20035;-75
2021/04/18 18:06:07;;;;;;;42.58;21.90;;;;;;;7.19;100.00;94745.09;10483515;28;20808;-75
2021/04/18 18:11:08;;;;;;;44.75;21.60;;;;;;;7.22;100.00;94743.81;10485587;28;20155;-75
2021/04/18 18:16:08;;;;;;;48.85;21.70;;;;;;;7.19;100.00;94756.59;10505726;28;20028;-75
2021/04/18 18:21:09;;;;;;;45.60;21.70;;;;;;;7.04;100.00;94763.66;10514276;28;20032;-74
2021/04/18 18:26:09;;;;;;;45.92;20.33;;;;;;;7.05;100.00;94755.38;10519151;28;20043;-74
2021/04/18 18:31:10;;;;;;;51.67;22.15;;;;;;;7.08;100.00;94762.09;10506962;28;20051;-74
2021/04/18 18:36:10;;;;;;;45.70;23.33;;;;;;;7.17;100.00;94763.25;10527923;28;20028;-74
2021/04/18 18:41:11;;;;;;;48.17;21.17;;;;;;;7.21;100.00;94750.19;10527583;28;20712;-74
2021/04/18 18:46:13;;;;;;;50.67;23.90;;;;;;;7.16;100.00;94753.63;10509616;28;20039;-74
2021/04/18 18:51:14;;;;;;;53.67;23.02;;;;;;;6.98;100.00;94752.88;10527635;28;20063;-74
2021/04/18 18:56:17;;;;;;;54.65;24.95;;;;;;;6.96;100.00;94763.03;10499918;28;20131;-74
2021/04/18 19:01:18;;;;;;;70.75;30.20;;;;;;;6.96;100.00;94767.56;10485649;28;20037;-74
2021/04/18 19:06:19;;;;;;;60.10;27.88;;;;;;;6.85;100.00;94761.28;10499087;28;20067;-73
2021/04/18 19:11:19;;;;;;;60.40;27.05;;;;;;;6.77;100.00;94757.19;10503132;28;20124;-73
2021/04/18 19:16:19;;;;;;;56.53;27.57;;;;;;;6.85;100.00;94758.59;10472882;28;20035;-73
2021/04/18 19:21:20;;;;;;;56.25;26.92;;;;;;;6.85;100.00;94758.59;10484839;28;20309;-73
2021/04/18 19:26:21;;;;;;;58.38;28.75;;;;;;;6.70;100.00;94758.41;10517700;28;20067;-73
2021/04/18 19:31:21;;;;;;;63.83;29.50;;;;;;;6.38;100.00;94769.75;10486649;28;20017;-73
2021/04/18 19:36:21;;;;;;;56.43;27.20;;;;;;;6.31;100.00;94757.38;10492465;28;20032;-73
2021/04/18 19:41:22;;;;;;;66.25;30.05;;;;;;;6.21;100.00;94751.91;10501864;28;20673;-73
2021/04/18 19:46:22;;;;;;;63.80;30.13;;;;;;;6.13;100.00;94757.66;10504203;28;20024;-73
2021/04/18 19:51:23;;;;;;;57.80;29.63;;;;;;;6.13;100.00;94766.47;10495812;28;20036;-73
2021/04/18 19:56:23;;;;;;;57.80;28.95;;;;;;;6.20;100.00;94762.84;10495858;28;20032;-73
2021/04/18 20:01:23;;;;;;;57.05;28.98;;;;;;;6.07;100.00;94751.44;10491125;28;20036;-73
2021/04/18 20:06:24;;;;;;;60.30;29.60;;;;;;;5.95;100.00;94748.81;10530873;28;20035;-73
2021/04/18 20:11:24;;;;;;;55.50;28.80;;;;;;;5.95;100.00;94743.50;10532776;28;20193;-73
2021/04/18 20:16:25;;;;;;;50.00;25.05;;;;;;;5.72;100.00;94747.16;10532357;28;20289;-73
2021/04/18 20:21:25;;;;;;;55.87;28.37;;;;;;;5.70;100.00;94745.75;10532381;28;20027;-73
2021/04/18 20:26:27;;;;;;;54.28;28.70;;;;;;;5.67;100.00;94751.59;10532104;28;20852;-73
2021/04/18 20:31:27;;;;;;;64.50;27.40;;;;;;;5.61;100.00;94746.16;10531522;28;20082;-72
2021/04/18 20:36:32;;;;;;;57.60;27.70;;;;;;;5.28;100.00;94744.25;10531797;28;20544;-72
2021/04/18 20:41:33;;;;;;;53.85;27.33;;;;;;;5.39;100.00;94753.25;10531883;28;20354;-73
2021/04/18 20:46:34;;;;;;;58.20;29.50;;;;;;;5.22;100.00;94753.19;10530207;28;20032;-73
2021/04/18 20:51:34;;;;;;;59.90;27.50;;;;;;;5.19;100.00;94759.00;10531857;28;20044;-73
2021/04/18 20:56:35;;;;;;;58.07;27.67;;;;;;;5.17;100.00;94748.59;10531163;28;20044;-73
2021/04/18 21:01:35;;;;;;;62.23;29.83;;;;;;;5.04;100.00;94740.91;10512559;28;20399;-72
2021/04/18 21:06:37;;;;;;;62.53;31.05;;;;;;;5.03;100.00;94737.41;10531566;28;20274;-73
2021/04/18 21:11:37;;;;;;;69.07;33.00;;;;;;;4.95;100.00;94738.63;10530672;28;20024;-72
2021/04/18 21:16:38;;;;;;;76.35;34.38;;;;;;;4.89;100.00;94736.88;10530206;28;20487;-73
2021/04/18 21:21:38;;;;;;;71.00;31.63;;;;;;;4.77;100.00;94741.44;10530490;28;20035;-73
2021/04/18 21:26:39;;;;;;;66.35;31.13;;;;;;;4.72;100.00;94752.81;10530162;28;20065;-73
2021/04/18 21:31:39;;;;;;;65.53;31.40;;;;;;;4.75;100.00;94748.88;10529356;28;20040;-73
2021/04/18 21:36:40;;;;;;;79.45;35.05;;;;;;;4.65;100.00;94743.31;10529725;28;20657;-73
2021/04/18 21:41:40;;;;;;;71.95;35.10;;;;;;;4.69;100.00;94723.16;10529570;28;20110;-73
2021/04/18 21:46:41;;;;;;;89.32;33.88;;;;;;;4.61;100.00;94727.81;10529129;28;20423;-73
2021/04/18 21:51:41;;;;;;;75.27;35.87;;;;;;;4.56;100.00;94733.06;10522940;28;20058;-73
2021/04/18 21:56:42;;;;;;;78.20;36.72;;;;;;;4.48;100.00;94737.91;10486715;28;20044;-73
2021/04/18 22:01:42;;;;;;;81.20;38.73;;;;;;;4.56;100.00;94726.91;10486937;28;20050;-73
2021/04/18 22:06:43;;;;;;;79.93;39.27;;;;;;;4.56;100.00;94729.56;10486715;28;20783;-73
2021/04/18 22:11:44;;;;;;;83.35;41.72;;;;;;;4.58;100.00;94728.31;10487087;28;20054;-73
2021/04/18 22:16:44;;;;;;;99.10;44.95;;;;;;;4.44;100.00;94740.25;10468685;28;20032;-73
2021/04/18 22:21:44;;;;;;;91.70;41.15;;;;;;;4.39;100.00;94730.31;10468676;28;20025;-73
2021/04/18 22:26:45;;;;;;;97.17;35.73;;;;;;;4.39;100.00;94740.94;10486179;28;20032;-74
2021/04/18 22:31:45;;;;;;;103.13;38.47;;;;;;;4.41;100.00;94738.88;10486485;28;20031;-73
2021/04/18 22:36:46;;;;;;;96.40;36.45;;;;;;;4.35;100.00;94744.31;10486075;28;20278;-73
2021/04/18 22:41:46;;;;;;;86.47;36.42;;;;;;;4.38;100.00;94743.84;10486455;28;20031;-73
2021/04/18 22:46:48;;;;;;;88.55;34.95;;;;;;;4.37;100.00;94734.25;10508319;28;20035;-73
2021/04/18 22:51:48;;;;;;;92.45;36.78;;;;;;;4.33;100.00;94730.44;10534151;28;20044;-73